Time;durP1;ratioP1;P1;durP2;ratioP2;P2;SDS_P1;SDS_P2;PMS_P1;PMS_P2;Temp;Humidity;BMP_temperature;BMP_pressure;BME280_temperature;BME280_humidity;BME280_pressure;Samples;Min_cycle;Max_cycle;Signal;HPM_P1;HPM_P2
2023/08/03 00:00:03;;;;;;;4.80;1.77;;;;;;;-147.32;100.00;65238.50;10435198;28;20033;-71
2023/08/03 00:05:04;;;;;;;5.28;1.80;;;;;;;-147.32;100.00;65238.50;10453712;28;20048;-70
2023/08/03 00:10:04;;;;;;;9.00;3.42;;;;;;;-147.32;100.00;65238.50;10435981;28;20501;-70
2023/08/03 00:15:05;;;;;;;4.43;1.80;;;;;;;-147.32;100.00;65238.50;10462841;28;20045;-70
2023/08/03 00:20:06;;;;;;;11.35;2.30;;;;;;;-147.32;100.00;65238.50;10457764;28;20060;-70
2023/08/03 00:25:07;;;;;;;8.48;1.85;;;;;;;-147.32;100.00;65238.50;10472244;28;20040;-72
2023/08/03 00:30:08;;;;;;;6.72;2.35;;;;;;;-147.32;100.00;65238.50;10436052;28;20095;-72
2023/08/03 00:35:09;;;;;;;8.85;2.13;;;;;;;-147.32;100.00;65238.50;10434664;28;20052;-72
2023/08/03 00:40:09;;;;;;;5.82;2.47;;;;;;;-147.32;100.00;65238.50;10469524;28;20348;-71
2023/08/03 00:45:13;;;;;;;5.60;2.42;;;;;;;-147.32;100.00;65238.50;10445229;28;20033;-77
2023/08/03 00:50:13;;;;;;;6.13;2.40;;;;;;;-147.32;100.00;65238.50;10436105;28;20036;-77
2023/08/03 00:55:14;;;;;;;7.30;2.55;;;;;;;-147.32;100.00;65238.50;10445337;28;20047;-80
2023/08/03 01:00:14;;;;;;;5.38;2.45;;;;;;;-147.32;100.00;65238.50;10430429;28;20096;-80
2023/08/03 01:05:15;;;;;;;10.13;2.35;;;;;;;-147.32;100.00;65238.50;10400012;28;20040;-79
2023/08/03 01:10:16;;;;;;;9.05;2.40;;;;;;;-147.32;100.00;65238.50;10444145;28;20070;-78
2023/08/03 01:15:17;;;;;;;5.20;2.53;;;;;;;-147.32;100.00;65238.50;10437451;28;20076;-78
2023/08/03 01:20:18;;;;;;;6.45;2.55;;;;;;;-147.32;100.00;65238.50;10410952;28;20037;-79
2023/08/03 01:25:18;;;;;;;11.63;3.30;;;;;;;-147.32;100.00;65238.50;10443884;28;20041;-77
2023/08/03 01:30:19;;;;;;;4.05;2.60;;;;;;;-147.32;100.00;65238.50;10431337;28;20100;-79
2023/08/03 01:35:20;;;;;;;10.63;2.95;;;;;;;-147.32;100.00;65238.50;10440527;28;20036;-79
2023/08/03 01:40:20;;;;;;;5.40;2.80;;;;;;;-147.32;100.00;65238.50;10457713;28;20497;-78
2023/08/03 01:45:21;;;;;;;8.60;3.22;;;;;;;-147.32;100.00;65238.50;10404098;28;20045;-79
2023/08/03 01:50:21;;;;;;;8.70;3.30;;;;;;;-147.32;100.00;65238.50;10439417;28;20033;-81
2023/08/03 01:55:22;;;;;;;4.72;2.40;;;;;;;-147.32;100.00;65238.50;10465050;28;20063;-81
2023/08/03 02:00:24;;;;;;;3.55;2.22;;;;;;;-147.32;100.00;65238.50;10456041;28;20672;-81
2023/08/03 02:05:24;;;;;;;3.90;2.10;;;;;;;-147.32;100.00;65238.50;10434901;28;20083;-79
2023/08/03 02:10:25;;;;;;;9.35;2.47;;;;;;;-147.32;100.00;65238.50;10470954;28;20075;-84
2023/08/03 02:15:26;;;;;;;6.68;1.70;;;;;;;-147.32;100.00;65238.50;10454005;28;20037;-86
2023/08/03 02:20:26;;;;;;;3.92;1.73;;;;;;;-147.32;100.00;65238.50;10448392;28;20520;-80
2023/08/03 02:25:27;;;;;;;5.28;1.90;;;;;;;-147.32;100.00;65238.50;10467847;28;20040;-84
2023/08/03 02:30:27;;;;;;;5.10;1.85;;;;;;;-147.32;100.00;65238.50;10428926;28;20044;-83
2023/08/03 02:35:28;;;;;;;3.22;1.42;;;;;;;-147.32;100.00;65238.50;10488026;28;20032;-83
2023/08/03 02:40:29;;;;;;;4.90;1.70;;;;;;;-147.32;100.00;65238.50;10449387;28;20095;-81
2023/08/03 02:45:29;;;;;;;2.75;2.10;;;;;;;-147.32;100.00;65238.50;10433627;28;20174;-83
2023/08/03 02:50:30;;;;;;;5.40;1.90;;;;;;;-147.32;100.00;65238.50;10427640;28;20043;-83
2023/08/03 02:55:30;;;;;;;5.93;1.92;;;;;;;-147.32;100.00;65238.50;10483729;28;20477;-74
2023/08/03 03:00:31;;;;;;;4.38;2.08;;;;;;;-147.32;100.00;65238.50;10461022;28;20059;-85
2023/08/03 03:05:31;;;;;;;5.82;3.00;;;;;;;-147.32;100.00;65238.50;10453655;28;20055;-86
2023/08/03 03:10:32;;;;;;;4.47;2.28;;;;;;;-147.32;100.00;65238.50;10463765;28;20047;-83
2023/08/03 03:15:33;;;;;;;4.65;2.40;;;;;;;-147.32;100.00;65238.50;10450065;28;20114;-84
2023/08/03 03:20:33;;;;;;;3.10;1.95;;;;;;;-147.32;100.00;65238.50;10488828;28;20511;-83
2023/08/03 03:25:34;;;;;;;2.65;1.92;;;;;;;-147.32;100.00;65238.50;10477344;28;20048;-85
2023/08/03 03:30:34;;;;;;;3.47;2.45;;;;;;;-147.32;100.00;65238.50;10481219;28;20053;-83
2023/08/03 03:35:35;;;;;;;4.25;3.03;;;;;;;-147.32;100.00;65238.50;10477861;28;20616;-75
2023/08/03 03:40:35;;;;;;;5.03;3.00;;;;;;;-147.32;100.00;65238.50;10455916;28;20044;-85
2023/08/03 03:45:35;;;;;;;6.25;2.97;;;;;;;-147.32;100.00;65238.50;10437158;28;20036;-81
2023/08/03 03:50:36;;;;;;;5.10;2.88;;;;;;;-147.32;100.00;65238.50;10453468;28;20082;-84
2023/08/03 03:55:36;;;;;;;5.75;3.05;;;;;;;-147.32;100.00;65238.50;10452747;28;20049;-84
2023/08/03 04:00:40;;;;;;;5.55;3.03;;;;;;;-147.32;100.00;65238.50;10438310;28;20037;-84
2023/08/03 04:05:41;;;;;;;4.68;2.85;;;;;;;-147.32;100.00;65238.50;10481765;28;20044;-82
2023/08/03 04:10:41;;;;;;;6.40;3.38;;;;;;;-147.32;100.00;65238.50;10450175;28;20041;-81
2023/08/03 04:15:42;;;;;;;5.15;3.10;;;;;;;-147.32;100.00;65238.50;10464344;28;20101;-80
2023/08/03 04:20:42;;;;;;;6.05;3.58;;;;;;;-147.32;100.00;65238.50;10459684;28;20041;-74
2023/08/03 04:25:43;;;;;;;6.93;3.60;;;;;;;-147.32;100.00;65238.50;10476228;28;20045;-78
2023/08/03 04:30:43;;;;;;;10.93;4.63;;;;;;;-147.32;100.00;65238.50;10441103;28;20037;-79
2023/08/03 04:35:44;;;;;;;9.45;5.05;;;;;;;-147.32;100.00;65238.50;10439848;28;20048;-79
2023/08/03 04:40:44;;;;;;;14.05;6.45;;;;;;;-147.32;100.00;65238.50;10439112;28;20501;-78
2023/08/03 04:45:45;;;;;;;13.50;6.72;;;;;;;-147.32;100.00;65238.50;10436401;28;20044;-78
2023/08/03 04:50:45;;;;;;;11.50;7.03;;;;;;;-147.32;100.00;65238.50;10430009;28;20037;-76
2023/08/03 04:55:46;;;;;;;13.02;7.35;;;;;;;-147.32;100.00;65238.50;10458396;28;20043;-78
2023/08/03 05:00:47;;;;;;;20.92;9.10;;;;;;;-147.32;100.00;65238.50;10433309;28;20044;-80
2023/08/03 05:05:48;;;;;;;16.65;8.75;;;;;;;-147.32;100.00;65238.50;10475434;28;20041;-77
2023/08/03 05:10:49;;;;;;;15.60;8.23;;;;;;;-147.32;100.00;65238.50;10451458;28;20041;-77
2023/08/03 05:15:50;;;;;;;18.83;8.13;;;;;;;-147.32;100.00;65238.50;10422136;28;20576;-76
2023/08/03 05:20:50;;;;;;;14.63;8.60;;;;;;;-147.32;100.00;65238.50;10458125;28;20041;-78
2023/08/03 05:25:55;;;;;;;16.42;7.65;;;;;;;-147.32;100.00;65238.50;10434639;28;20509;-77
2023/08/03 05:30:56;;;;;;;18.63;8.95;;;;;;;-147.32;100.00;65238.50;10434546;28;20033;-76
2023/08/03 05:35:56;;;;;;;18.13;8.05;;;;;;;-147.32;100.00;65238.50;10450656;28;20037;-76
2023/08/03 05:40:57;;;;;;;17.98;7.38;;;;;;;-147.32;100.00;65238.50;10448501;28;20037;-76
2023/08/03 05:46:00;;;;;;;14.07;6.88;;;;;;;-147.32;100.00;65238.50;10460318;28;20037;-76
2023/08/03 05:51:00;;;;;;;16.60;7.00;;;;;;;-147.32;100.00;65238.50;10444796;28;20040;-76
2023/08/03 05:56:01;;;;;;;21.17;7.53;;;;;;;-147.32;100.00;65238.50;10458846;28;20485;-76
2023/08/03 06:01:01;;;;;;;18.02;6.65;;;;;;;-147.32;100.00;65238.50;10447938;28;20485;-75
2023/08/03 06:06:03;;;;;;;19.42;7.47;;;;;;;-147.32;100.00;65238.50;10433939;28;20047;-72
2023/08/03 06:11:04;;;;;;;14.82;6.32;;;;;;;-147.32;100.00;65238.50;10471062;28;20044;-77
2023/08/03 06:16:09;;;;;;;14.82;6.70;;;;;;;-147.32;100.00;65238.50;10456791;28;21588;-77
2023/08/03 06:21:12;;;;;;;10.98;5.88;;;;;;;-147.32;100.00;65238.50;10445090;28;20104;-77
2023/08/03 06:26:13;;;;;;;10.25;5.38;;;;;;;-147.32;100.00;65238.50;10441585;28;20033;-78
2023/08/03 06:31:28;;;;;;;8.70;5.65;;;;;;;-147.32;100.00;65238.50;10455046;28;20258;-77
2023/08/03 06:36:29;;;;;;;7.75;4.95;;;;;;;-147.32;100.00;65238.50;10442080;28;20098;-78
2023/08/03 06:41:29;;;;;;;8.00;4.25;;;;;;;-147.32;100.00;65238.50;10445156;28;20095;-78
2023/08/03 06:46:30;;;;;;;12.98;5.10;;;;;;;-147.32;100.00;65238.50;10480551;28;20040;-77
2023/08/03 06:51:32;;;;;;;9.48;5.63;;;;;;;-147.32;100.00;65238.50;10476656;28;20478;-77
2023/08/03 06:56:32;;;;;;;9.43;5.57;;;;;;;-147.32;100.00;65238.50;10475444;28;20504;-76
2023/08/03 07:01:33;;;;;;;9.48;5.13;;;;;;;-147.32;100.00;65238.50;10453622;28;20048;-75
2023/08/03 07:06:33;;;;;;;7.80;5.10;;;;;;;-147.32;100.00;65238.50;10477165;28;20044;-77
2023/08/03 07:11:34;;;;;;;5.40;3.53;;;;;;;-147.32;100.00;65238.50;10441014;28;20116;-75
2023/08/03 07:16:36;;;;;;;4.55;2.80;;;;;;;-147.32;100.00;65238.50;10477186;28;20030;-76
2023/08/03 07:21:37;;;;;;;4.85;2.38;;;;;;;-147.32;100.00;65238.50;10463705;28;20052;-75
2023/08/03 07:26:38;;;;;;;4.70;2.15;;;;;;;-147.32;100.00;65238.50;10448630;28;20033;-75
2023/08/03 07:31:39;;;;;;;4.10;1.70;;;;;;;-147.32;100.00;65238.50;10460458;28;20508;-76
2023/08/03 07:36:39;;;;;;;2.15;1.10;;;;;;;-147.32;100.00;65238.50;10445049;28;20040;-75
2023/08/03 07:41:39;;;;;;;2.28;1.50;;;;;;;-147.32;100.00;65238.50;10440307;28;20049;-75
2023/08/03 07:46:40;;;;;;;3.25;1.35;;;;;;;-147.32;100.00;65238.50;10456291;28;20052;-75
2023/08/03 07:51:40;;;;;;;3.50;1.27;;;;;;;-147.32;100.00;65238.50;10456251;28;20033;-75
2023/08/03 07:56:41;;;;;;;3.70;1.10;;;;;;;-147.32;100.00;65238.50;10442515;28;20037;-75
2023/08/03 08:01:43;;;;;;;2.25;1.45;;;;;;;-147.32;100.00;65238.50;10422624;28;20425;-75
2023/08/03 08:06:44;;;;;;;1.10;0.73;;;;;;;-147.32;100.00;65238.50;10415674;28;20037;-74
2023/08/03 08:11:45;;;;;;;1.85;0.50;;;;;;;-147.32;100.00;65238.50;10430229;28;20033;-73
2023/08/03 08:16:45;;;;;;;0.77;0.57;;;;;;;-147.32;100.00;65238.50;10472882;28;20033;-73
2023/08/03 08:21:46;;;;;;;0.50;0.40;;;;;;;-147.32;100.00;65238.50;10436535;28;20060;-73
2023/08/03 08:26:46;;;;;;;0.70;0.60;;;;;;;-147.32;100.00;65238.50;10427300;28;20036;-71
2023/08/03 08:31:47;;;;;;;2.70;0.68;;;;;;;-147.32;100.00;65238.50;10437810;28;20056;-72
2023/08/03 08:36:51;;;;;;;2.15;1.10;;;;;;;-147.32;100.00;65238.50;10455159;28;20457;-71
2023/08/03 08:41:51;;;;;;;2.15;0.70;;;;;;;-147.32;100.00;65238.50;10459403;28;20048;-71
2023/08/03 08:46:52;;;;;;;1.40;0.63;;;;;;;-147.32;100.00;65238.50;10430223;28;20041;-70
2023/08/03 08:51:58;;;;;;;3.13;0.50;;;;;;;-147.32;100.00;65238.50;10466059;28;20049;-70
2023/08/03 08:56:59;;;;;;;1.60;0.45;;;;;;;-147.32;100.00;65238.50;10443020;28;20041;-70
2023/08/03 09:02:01;;;;;;;1.60;0.80;;;;;;;-147.32;100.00;65238.50;10473915;28;20037;-70
2023/08/03 09:07:01;;;;;;;2.42;0.80;;;;;;;-147.32;100.00;65238.50;10451269;28;20040;-69
2023/08/03 09:12:02;;;;;;;2.75;0.50;;;;;;;-147.32;100.00;65238.50;10424028;28;20037;-69
2023/08/03 09:17:16;;;;;;;2.70;0.52;;;;;;;-147.32;100.00;65238.50;10458364;28;20115;-70
2023/08/03 09:22:17;;;;;;;2.53;0.68;;;;;;;-147.32;100.00;65238.50;10451492;28;20099;-71
2023/08/03 09:27:17;;;;;;;2.30;0.60;;;;;;;-147.32;100.00;65238.50;10452163;28;20082;-69
2023/08/03 09:32:18;;;;;;;0.88;0.50;;;;;;;-147.32;100.00;65238.50;10477001;28;20032;-69
2023/08/03 09:37:18;;;;;;;2.90;0.80;;;;;;;-147.32;100.00;65238.50;10463800;28;20120;-70
2023/08/03 09:42:19;;;;;;;2.70;0.47;;;;;;;-147.32;100.00;65238.50;10438420;28;20044;-69
2023/08/03 09:47:19;;;;;;;2.05;0.38;;;;;;;-147.32;100.00;65238.50;10428311;28;20033;-69
2023/08/03 09:52:21;;;;;;;3.20;0.85;;;;;;;-147.32;100.00;65238.50;10453752;28;20036;-69
2023/08/03 09:57:23;;;;;;;3.75;1.35;;;;;;;-147.32;100.00;65238.50;10454566;28;20062;-69
2023/08/03 10:02:24;;;;;;;4.10;0.60;;;;;;;-147.32;100.00;65238.50;10438748;28;20065;-69
2023/08/03 10:07:26;;;;;;;2.70;0.65;;;;;;;-147.32;100.00;65238.50;10439361;28;20044;-68
2023/08/03 10:12:42;;;;;;;3.15;0.70;;;;;;;-147.32;100.00;65238.50;10460730;28;20032;-68
2023/08/03 10:17:43;;;;;;;1.38;0.70;;;;;;;-147.32;100.00;65238.50;10460157;28;20044;-68
2023/08/03 10:23:06;;;;;;;7.03;1.83;;;;;;;-147.32;100.00;65238.50;10457761;28;20063;-68
2023/08/03 10:28:12;;;;;;;7.25;1.08;;;;;;;-147.32;100.00;65238.50;10415911;28;20517;-69
2023/08/03 10:33:12;;;;;;;6.43;2.33;;;;;;;-147.32;100.00;65238.50;10410384;28;20041;-69
2023/08/03 10:38:19;;;;;;;2.85;1.42;;;;;;;-147.32;100.00;65238.50;10426250;28;20095;-70
2023/08/03 10:43:20;;;;;;;1.77;0.70;;;;;;;-147.32;100.00;65238.50;10457477;28;20067;-69
2023/08/03 10:48:40;;;;;;;2.80;0.70;;;;;;;-147.32;100.00;65238.50;10468509;28;20037;-69
2023/08/03 10:53:41;;;;;;;2.78;1.10;;;;;;;-147.32;100.00;65238.50;10426287;28;20045;-69
2023/08/03 10:58:48;;;;;;;3.33;0.88;;;;;;;-147.32;100.00;65238.50;10450254;28;20037;-71
2023/08/03 11:03:49;;;;;;;4.40;0.80;;;;;;;-147.32;100.00;65238.50;10461840;28;20048;-69
2023/08/03 11:08:49;;;;;;;3.45;0.80;;;;;;;-147.32;100.00;65238.50;10438787;28;20044;-69
2023/08/03 11:13:51;;;;;;;1.63;0.82;;;;;;;-147.32;100.00;65238.50;10412738;28;20504;-71
2023/08/03 11:18:51;;;;;;;5.10;1.08;;;;;;;-147.32;100.00;65238.50;10421564;28;20049;-69
2023/08/03 11:23:52;;;;;;;4.78;1.98;;;;;;;-147.32;100.00;65238.50;10450662;28;20063;-71
2023/08/03 11:28:52;;;;;;;3.30;1.88;;;;;;;-147.32;100.00;65238.50;10442152;28;20044;-71
2023/08/03 11:33:54;;;;;;;2.75;1.27;;;;;;;-147.32;100.00;65238.50;10428000;28;20087;-70
2023/08/03 11:38:54;;;;;;;5.90;1.13;;;;;;;-147.32;100.00;65238.50;10427985;28;20049;-70
2023/08/03 11:43:55;;;;;;;4.82;1.02;;;;;;;-147.32;100.00;65238.50;10452054;28;20507;-70
2023/08/03 11:48:56;;;;;;;3.65;1.10;;;;;;;-147.32;100.00;65238.50;10439614;28;20059;-69
2023/08/03 11:54:00;;;;;;;4.22;1.10;;;;;;;-147.32;100.00;65238.50;10455584;28;20096;-68
2023/08/03 11:59:01;;;;;;;4.70;1.55;;;;;;;-147.32;100.00;65238.50;10459380;28;20100;-70
2023/08/03 12:04:09;;;;;;;5.90;1.40;;;;;;;-147.32;100.00;65238.50;10470096;28;20051;-69
2023/08/03 12:09:16;;;;;;;4.60;1.10;;;;;;;-147.32;100.00;65238.50;10454186;28;20040;-71
2023/08/03 12:14:17;;;;;;;4.03;1.00;;;;;;;-147.32;100.00;65238.50;10443279;28;20123;-70
2023/08/03 12:19:19;;;;;;;5.13;1.13;;;;;;;-147.32;100.00;65238.50;10430938;28;20560;-69
2023/08/03 12:24:19;;;;;;;5.88;0.90;;;;;;;-147.32;100.00;65238.50;10425224;28;20041;-70
2023/08/03 12:29:20;;;;;;;3.50;1.00;;;;;;;-147.32;100.00;65238.50;10459344;28;20036;-69
2023/08/03 12:34:20;;;;;;;5.28;0.60;;;;;;;-147.32;100.00;65238.50;10453529;28;20072;-70
2023/08/03 12:39:21;;;;;;;4.95;2.35;;;;;;;-147.32;100.00;65238.50;10435614;28;20064;-69
2023/08/03 12:44:24;;;;;;;3.63;0.82;;;;;;;-147.32;100.00;65238.50;10476473;28;20052;-68
2023/08/03 12:49:24;;;;;;;4.63;0.55;;;;;;;-147.32;100.00;65238.50;10454340;28;20100;-69
2023/08/03 12:54:25;;;;;;;2.22;0.55;;;;;;;-147.32;100.00;65238.50;10474749;28;20056;-71
2023/08/03 12:59:25;;;;;;;1.85;0.55;;;;;;;-147.32;100.00;65238.50;10456236;28;20036;-69
2023/08/03 13:04:26;;;;;;;2.22;0.73;;;;;;;-147.32;100.00;65238.50;10454712;28;20041;-68
2023/08/03 13:09:26;;;;;;;3.25;1.05;;;;;;;-147.32;100.00;65238.50;10438611;28;20093;-68
2023/08/03 13:14:26;;;;;;;4.72;0.80;;;;;;;-147.32;100.00;65238.50;10454895;28;20033;-69
2023/08/03 13:19:27;;;;;;;2.92;0.75;;;;;;;-147.32;100.00;65238.50;10413236;28;20068;-66
2023/08/03 13:24:28;;;;;;;8.27;0.73;;;;;;;-147.32;100.00;65238.50;10417617;28;20460;-67
2023/08/03 13:29:28;;;;;;;2.92;0.68;;;;;;;-147.32;100.00;65238.50;10438976;28;20032;-68
2023/08/03 13:34:29;;;;;;;5.32;0.60;;;;;;;-147.32;100.00;65238.50;10425404;28;20048;-68
2023/08/03 13:39:29;;;;;;;4.88;1.10;;;;;;;-147.32;100.00;65238.50;10409101;28;20043;-69
2023/08/03 13:44:30;;;;;;;3.25;0.90;;;;;;;-147.32;100.00;65238.50;10409522;28;20037;-68
2023/08/03 13:49:31;;;;;;;3.95;0.45;;;;;;;-147.32;100.00;65238.50;10448117;28;20067;-68
2023/08/03 13:54:32;;;;;;;1.90;0.68;;;;;;;-147.32;100.00;65238.50;10411957;28;20063;-68
2023/08/03 13:59:32;;;;;;;2.42;0.52;;;;;;;-147.32;100.00;65238.50;10442860;28;20079;-67
2023/08/03 14:04:52;;;;;;;1.58;0.60;;;;;;;-147.32;100.00;65238.50;10424424;28;20045;-67
2023/08/03 14:09:53;;;;;;;1.95;0.60;;;;;;;-147.32;100.00;65238.50;10447745;28;20099;-71
2023/08/03 14:14:54;;;;;;;2.78;0.50;;;;;;;-147.32;100.00;65238.50;10459173;28;20095;-67
2023/08/03 14:19:55;;;;;;;4.35;0.77;;;;;;;-147.32;100.00;65238.50;10462793;28;20053;-68
2023/08/03 14:24:55;;;;;;;3.03;0.98;;;;;;;-147.32;100.00;65238.50;10454959;28;20524;-68
2023/08/03 14:29:56;;;;;;;3.15;0.85;;;;;;;-147.32;100.00;65238.50;10455029;28;20079;-68
2023/08/03 14:34:57;;;;;;;4.35;1.80;;;;;;;-147.32;100.00;65238.50;10426146;28;20037;-68
2023/08/03 14:39:59;;;;;;;4.20;1.10;;;;;;;-147.32;100.00;65238.50;10442098;28;20041;-67
2023/08/03 14:45:00;;;;;;;5.18;1.63;;;;;;;-147.32;100.00;65238.50;10477062;28;20036;-68
2023/08/03 14:50:01;;;;;;;4.28;1.77;;;;;;;-147.32;100.00;65238.50;10423330;28;20048;-68
2023/08/03 14:55:02;;;;;;;7.53;2.40;;;;;;;-147.32;100.00;65238.50;10434834;28;20041;-68
2023/08/03 15:00:05;;;;;;;5.15;2.33;;;;;;;-147.32;100.00;65238.50;10455976;28;20136;-68
2023/08/03 15:05:06;;;;;;;4.47;2.45;;;;;;;-147.32;100.00;65238.50;10415371;28;20044;-68
2023/08/03 15:10:07;;;;;;;7.57;2.25;;;;;;;-147.32;100.00;65238.50;10429117;28;20037;-67
2023/08/03 15:15:08;;;;;;;5.03;2.05;;;;;;;-147.32;100.00;65238.50;10423274;28;20037;-68
2023/08/03 15:20:09;;;;;;;6.57;2.13;;;;;;;-147.32;100.00;65238.50;10420449;28;20060;-68
2023/08/03 15:25:10;;;;;;;5.88;2.80;;;;;;;-147.32;100.00;65238.50;10435686;28;20060;-69
2023/08/03 15:30:12;;;;;;;6.18;1.83;;;;;;;-147.32;100.00;65238.50;10444334;28;20037;-69
2023/08/03 15:35:14;;;;;;;4.68;1.60;;;;;;;-147.32;100.00;65238.50;10471593;28;20132;-68
2023/08/03 15:40:15;;;;;;;7.47;1.80;;;;;;;-147.32;100.00;65238.50;10478076;28;20078;-68
2023/08/03 15:45:15;;;;;;;4.68;1.42;;;;;;;-147.32;100.00;65238.50;10470748;28;20099;-68
2023/08/03 15:50:16;;;;;;;6.28;1.67;;;;;;;-147.32;100.00;65238.50;10457097;28;20041;-67
2023/08/03 15:55:16;;;;;;;5.60;2.00;;;;;;;-147.32;100.00;65238.50;10455295;28;20067;-67
2023/08/03 16:00:18;;;;;;;5.70;1.58;;;;;;;-147.32;100.00;65238.50;10444531;28;20028;-68
2023/08/03 16:05:19;;;;;;;3.80;1.50;;;;;;;-147.32;100.00;65238.50;10448046;28;20028;-68
2023/08/03 16:10:19;;;;;;;8.27;2.20;;;;;;;-147.32;100.00;65238.50;10442691;28;20114;-68
2023/08/03 16:15:20;;;;;;;10.63;2.83;;;;;;;-147.32;100.00;65238.50;10457177;28;20052;-68
2023/08/03 16:20:20;;;;;;;5.80;2.20;;;;;;;-147.32;100.00;65238.50;10472194;28;20105;-68
2023/08/03 16:25:22;;;;;;;6.78;2.40;;;;;;;-147.32;100.00;65238.50;10471604;28;20044;-67
2023/08/03 16:30:22;;;;;;;8.93;3.53;;;;;;;-147.32;100.00;65238.50;10451519;28;20052;-67
2023/08/03 16:35:23;;;;;;;10.63;3.50;;;;;;;-147.32;100.00;65238.50;10464464;28;20043;-67
2023/08/03 16:40:23;;;;;;;17.92;5.07;;;;;;;-147.32;100.00;65238.50;10448215;28;20040;-68
2023/08/03 16:45:24;;;;;;;12.48;5.75;;;;;;;-147.32;100.00;65238.50;10452080;28;20066;-67
2023/08/03 16:50:24;;;;;;;17.45;5.25;;;;;;;-147.32;100.00;65238.50;10452420;28;20097;-68
2023/08/03 16:55:25;;;;;;;13.38;4.22;;;;;;;-147.32;100.00;65238.50;10438402;28;20190;-67
2023/08/03 17:00:25;;;;;;;12.80;3.63;;;;;;;-147.32;100.00;65238.50;10477010;28;20032;-68
2023/08/03 17:05:26;;;;;;;10.30;4.07;;;;;;;-147.32;100.00;65238.50;10473378;28;20109;-67
2023/08/03 17:10:26;;;;;;;11.80;3.20;;;;;;;-147.32;100.00;65238.50;10477620;28;20040;-67
2023/08/03 17:15:27;;;;;;;17.48;3.60;;;;;;;-147.32;100.00;65238.50;10460606;28;20047;-69
2023/08/03 17:20:29;;;;;;;13.50;3.38;;;;;;;-147.32;100.00;65238.50;10487503;28;20040;-67
2023/08/03 17:25:30;;;;;;;13.70;3.58;;;;;;;-147.32;100.00;65238.50;10448676;28;20123;-67
2023/08/03 17:30:30;;;;;;;11.30;3.78;;;;;;;-147.32;100.00;65238.50;10478165;28;20033;-68
2023/08/03 17:35:31;;;;;;;7.57;2.83;;;;;;;-147.32;100.00;65238.50;10482289;28;20072;-67
2023/08/03 17:40:31;;;;;;;12.15;3.22;;;;;;;-147.32;100.00;65238.50;10474339;28;20049;-67
2023/08/03 17:45:33;;;;;;;8.45;3.80;;;;;;;-147.32;100.00;65238.50;10481229;28;20068;-68
2023/08/03 17:50:36;;;;;;;16.45;3.75;;;;;;;-147.32;100.00;65238.50;10431498;28;20359;-68
2023/08/03 17:55:36;;;;;;;10.15;3.45;;;;;;;-147.32;100.00;65238.50;10418713;28;20394;-68
2023/08/03 18:00:37;;;;;;;11.55;3.50;;;;;;;-147.32;100.00;65238.50;10471677;28;20036;-68
2023/08/03 18:05:41;;;;;;;16.23;4.20;;;;;;;-147.32;100.00;65238.50;10432179;28;20112;-68
2023/08/03 18:10:50;;;;;;;7.72;2.67;;;;;;;-147.32;100.00;65238.50;10446017;28;20110;-68
2023/08/03 18:15:51;;;;;;;14.48;2.88;;;;;;;-147.32;100.00;65238.50;10416774;28;20522;-68
2023/08/03 18:20:53;;;;;;;11.50;2.78;;;;;;;-147.32;100.00;65238.50;10460305;28;20044;-67
2023/08/03 18:25:58;;;;;;;9.60;3.03;;;;;;;-147.32;100.00;65238.50;10444545;28;20041;-68
2023/08/03 18:31:00;;;;;;;9.70;2.80;;;;;;;-147.32;100.00;65238.50;10465784;28;20509;-67
2023/08/03 18:36:01;;;;;;;5.90;2.17;;;;;;;-147.32;100.00;65238.50;10443811;28;20400;-68
2023/08/03 18:41:03;;;;;;;10.50;2.75;;;;;;;-147.32;100.00;65238.50;10444935;28;20044;-68
2023/08/03 18:46:05;;;;;;;13.55;2.40;;;;;;;-147.32;100.00;65238.50;10442968;28;20047;-67
2023/08/03 18:51:10;;;;;;;8.85;2.75;;;;;;;-147.32;100.00;65238.50;10460376;28;20056;-68
2023/08/03 18:56:18;;;;;;;9.60;2.50;;;;;;;-147.32;100.00;65238.50;10479974;28;20112;-69
2023/08/03 19:01:18;;;;;;;15.88;3.85;;;;;;;-147.32;100.00;65238.50;10440992;28;20064;-68
2023/08/03 19:06:19;;;;;;;8.27;2.70;;;;;;;-147.32;100.00;65238.50;10461915;28;20404;-68
2023/08/03 19:11:20;;;;;;;5.82;2.33;;;;;;;-147.32;100.00;65238.50;10423788;28;20096;-68
2023/08/03 19:16:20;;;;;;;9.10;2.53;;;;;;;-147.32;100.00;65238.50;10458454;28;20033;-68
2023/08/03 19:21:22;;;;;;;6.30;2.47;;;;;;;-147.32;100.00;65238.50;10444092;28;20037;-67
2023/08/03 19:26:23;;;;;;;5.28;2.13;;;;;;;-147.32;100.00;65238.50;10433261;28;20088;-68
2023/08/03 19:31:23;;;;;;;15.02;3.10;;;;;;;-147.32;100.00;65238.50;10478829;28;20059;-68
2023/08/03 19:36:24;;;;;;;7.63;2.15;;;;;;;-147.32;100.00;65238.50;10474489;28;20036;-67
2023/08/03 19:41:24;;;;;;;11.07;2.92;;;;;;;-147.32;100.00;65238.50;10457225;28;20467;-68
2023/08/03 19:46:25;;;;;;;11.85;3.50;;;;;;;-147.32;100.00;65238.50;10458896;28;20160;-68
2023/08/03 19:51:25;;;;;;;5.75;2.83;;;;;;;-147.32;100.00;65238.50;10438991;28;20037;-68
2023/08/03 19:56:25;;;;;;;8.75;2.50;;;;;;;-147.32;100.00;65238.50;10445137;28;20040;-68
2023/08/03 20:01:33;;;;;;;12.75;3.88;;;;;;;15.68;100.00;100551.16;10507828;27;20395;-68
2023/08/03 20:06:33;;;;;;;13.85;3.03;;;;;;;15.73;100.00;100553.91;10479039;28;20071;-69
2023/08/03 20:11:34;;;;;;;9.30;3.33;;;;;;;15.78;100.00;100556.63;10476998;28;20116;-68
2023/08/03 20:16:34;;;;;;;6.72;2.10;;;;;;;15.74;100.00;100566.66;10467011;28;20041;-66
2023/08/03 20:21:38;;;;;;;7.13;2.58;;;;;;;15.71;100.00;100573.59;10471359;28;20048;-65
2023/08/03 20:26:39;;;;;;;8.80;2.63;;;;;;;15.69;100.00;100577.81;10481561;28;20040;-65
2023/08/03 20:31:39;;;;;;;13.90;2.42;;;;;;;15.73;100.00;100587.22;10452332;28;20041;-66
2023/08/03 20:36:40;;;;;;;9.07;2.70;;;;;;;15.79;100.00;100587.97;10454796;28;20049;-65
2023/08/03 20:41:40;;;;;;;14.85;2.70;;;;;;;15.87;100.00;100593.69;10475142;28;20474;-66
2023/08/03 20:46:41;;;;;;;8.15;3.05;;;;;;;15.91;100.00;100605.84;10470295;28;20048;-67
2023/08/03 20:51:41;;;;;;;10.32;2.67;;;;;;;15.93;100.00;100611.94;10441810;28;20049;-66
2023/08/03 20:56:42;;;;;;;6.28;2.33;;;;;;;15.99;100.00;100620.22;10437606;28;20052;-67
2023/08/03 21:01:43;;;;;;;8.10;3.60;;;;;;;16.01;100.00;100632.66;10434094;28;20061;-65
2023/08/03 21:06:43;;;;;;;13.27;2.65;;;;;;;15.93;100.00;100627.75;10435100;28;20494;-66
2023/08/03 21:11:44;;;;;;;9.60;3.05;;;;;;;15.98;100.00;100626.88;10413400;28;20547;-66
2023/08/03 21:16:44;;;;;;;8.45;2.35;;;;;;;15.90;100.00;100628.38;10405808;28;20048;-66
2023/08/03 21:21:45;;;;;;;8.38;2.90;;;;;;;15.79;100.00;100621.28;10405499;28;20041;-67
2023/08/03 21:26:46;;;;;;;5.05;2.63;;;;;;;15.91;100.00;100650.25;10407008;28;20589;-66
2023/08/03 21:31:46;;;;;;;8.90;2.17;;;;;;;15.90;100.00;100653.34;10407357;28;20045;-66
2023/08/03 21:36:47;;;;;;;9.55;2.65;;;;;;;15.89;100.00;100660.84;10409295;28;20056;-66
2023/08/03 21:41:47;;;;;;;9.75;3.10;;;;;;;15.87;100.00;100670.59;10409794;28;20052;-67
2023/08/03 21:46:48;;;;;;;10.82;2.63;;;;;;;15.79;100.00;100663.72;10405848;28;20089;-66
2023/08/03 21:51:48;;;;;;;9.88;2.60;;;;;;;15.80;100.00;100676.50;10387193;28;20053;-66
2023/08/03 21:56:49;;;;;;;9.50;2.70;;;;;;;15.79;100.00;100680.38;10403777;28;20069;-66
2023/08/03 22:01:49;;;;;;;8.77;2.50;;;;;;;15.78;100.00;100689.84;10407262;28;20087;-66
2023/08/03 22:06:50;;;;;;;6.53;2.80;;;;;;;15.77;100.00;100699.28;10406453;28;20038;-66
2023/08/03 22:11:51;;;;;;;6.80;3.08;;;;;;;15.74;100.00;100695.16;10404397;28;20040;-66
2023/08/03 22:16:51;;;;;;;9.52;3.30;;;;;;;15.59;100.00;100686.13;10402916;28;20048;-67
2023/08/03 22:21:52;;;;;;;10.32;2.50;;;;;;;15.56;100.00;100704.19;10400587;28;20065;-67
2023/08/03 22:26:53;;;;;;;5.88;2.70;;;;;;;15.52;100.00;100708.66;10403915;28;20049;-66